Time;durP1;ratioP1;P1;durP2;ratioP2;P2;SDS_P1;SDS_P2;PMS_P1;PMS_P2;Temp;Humidity;BMP_temperature;BMP_pressure;BME280_temperature;BME280_humidity;BME280_pressure;Samples;Min_cycle;Max_cycle;Signal;HPM_P1;HPM_P2
2023/02/27 00:00:44;;;;;;;1.58;1.40;;;2.70;99.90;;;;;;5034825;28;20614;-60
2023/02/27 00:03:10;;;;;;;1.85;1.63;;;2.80;99.90;;;;;;5035063;28;20279;-60
2023/02/27 00:05:37;;;;;;;4.40;1.50;;;2.80;99.90;;;;;;5034930;28;20192;-62
2023/02/27 00:08:03;;;;;;;2.20;1.83;;;2.90;99.90;;;;;;5034952;28;20714;-60
2023/02/27 00:10:31;;;;;;;3.25;1.73;;;2.70;99.90;;;;;;5034739;28;20213;-60
2023/02/27 00:12:58;;;;;;;2.78;1.63;;;2.70;99.90;;;;;;5034777;28;20188;-60
2023/02/27 00:15:24;;;;;;;3.13;2.08;;;2.80;99.90;;;;;;5034925;28;20228;-59
2023/02/27 00:17:51;;;;;;;3.13;1.90;;;2.80;99.90;;;;;;5034785;28;20292;-60
2023/02/27 00:20:19;;;;;;;2.85;1.65;;;2.80;99.90;;;;;;5034718;28;20193;-59
2023/02/27 00:22:46;;;;;;;2.58;1.50;;;2.80;99.90;;;;;;5034627;28;20559;-61
2023/02/27 00:25:13;;;;;;;1.80;1.30;;;2.80;99.90;;;;;;5034602;28;20203;-60
2023/02/27 00:27:42;;;;;;;2.40;2.00;;;2.80;99.90;;;;;;5034416;28;20196;-60
2023/02/27 00:30:11;;;;;;;3.42;2.08;;;2.80;99.90;;;;;;5034763;28;20287;-60
2023/02/27 00:32:38;;;;;;;4.22;1.60;;;2.70;99.90;;;;;;5034575;28;20615;-60
2023/02/27 00:35:07;;;;;;;2.53;1.77;;;2.70;99.90;;;;;;5001554;28;960383;-60
2023/02/27 00:37:34;;;;;;;2.63;1.80;;;2.60;99.90;;;;;;5035434;28;20543;-60
2023/02/27 00:40:03;;;;;;;3.25;2.00;;;2.70;99.90;;;;;;5035395;28;20286;-61
2023/02/27 00:42:30;;;;;;;3.38;2.30;;;2.70;99.90;;;;;;5035652;28;20715;-60
2023/02/27 00:44:58;;;;;;;2.65;2.10;;;2.50;99.90;;;;;;5035486;28;20654;-60
2023/02/27 00:47:25;;;;;;;3.65;2.50;;;2.30;99.90;;;;;;5035365;28;20194;-60
2023/02/27 00:49:51;;;;;;;4.28;2.92;;;2.30;99.90;;;;;;5035325;28;20197;-59
2023/02/27 00:52:18;;;;;;;3.75;2.80;;;2.30;99.90;;;;;;5034811;28;20224;-60
2023/02/27 00:54:44;;;;;;;3.15;2.58;;;2.20;99.90;;;;;;5035299;28;20194;-60
2023/02/27 00:57:11;;;;;;;3.15;2.55;;;2.20;99.90;;;;;;5035341;28;20625;-59
2023/02/27 00:59:37;;;;;;;2.30;2.10;;;2.20;99.90;;;;;;5035175;28;20199;-61
2023/02/27 01:02:05;;;;;;;2.83;2.35;;;2.30;99.90;;;;;;5035095;28;20211;-61
2023/02/27 01:04:31;;;;;;;5.07;2.50;;;2.30;99.90;;;;;;5035042;28;20275;-61
2023/02/27 01:06:58;;;;;;;2.33;1.80;;;2.20;99.90;;;;;;5034953;28;20197;-60
2023/02/27 01:09:24;;;;;;;2.30;2.08;;;2.20;99.90;;;;;;5034762;28;20530;-60
2023/02/27 01:11:51;;;;;;;3.55;2.30;;;2.20;99.90;;;;;;5035137;28;20224;-59
2023/02/27 01:14:18;;;;;;;2.85;2.60;;;2.20;99.90;;;;;;5034919;28;20228;-60
2023/02/27 01:16:45;;;;;;;4.90;2.58;;;2.10;99.90;;;;;;5034798;28;20286;-60
2023/02/27 01:19:13;;;;;;;2.50;2.30;;;1.90;99.90;;;;;;5034749;28;20188;-61
2023/02/27 01:21:40;;;;;;;2.85;2.15;;;1.90;99.90;;;;;;5034653;28;20192;-61
2023/02/27 01:24:07;;;;;;;2.80;2.60;;;2.00;99.90;;;;;;5034501;28;20568;-60
2023/02/27 01:26:33;;;;;;;2.50;2.30;;;2.00;99.90;;;;;;5034737;28;20193;-61
2023/02/27 01:29:00;;;;;;;2.63;2.42;;;2.00;99.90;;;;;;5034889;28;20208;-60
2023/02/27 01:31:26;;;;;;;3.25;2.80;;;2.10;99.90;;;;;;5034458;28;20577;-60
2023/02/27 01:33:53;;;;;;;2.25;2.05;;;2.10;99.90;;;;;;5034398;28;20725;-61
2023/02/27 01:36:21;;;;;;;2.90;2.50;;;2.10;99.90;;;;;;5034337;28;20195;-60
2023/02/27 01:38:47;;;;;;;5.15;2.40;;;2.10;99.90;;;;;;5034577;28;20196;-60
2023/02/27 01:41:14;;;;;;;5.72;3.05;;;1.90;99.90;;;;;;5034571;28;20598;-60
2023/02/27 01:43:56;;;;;;;2.42;2.22;;;1.90;99.90;;;;;;5034568;28;20199;-61
2023/02/27 01:46:23;;;;;;;4.45;3.05;;;1.80;99.90;;;;;;5034226;28;20716;-60
2023/02/27 01:48:53;;;;;;;3.50;2.63;;;1.60;99.90;;;;;;5034073;28;20227;-59
2023/02/27 01:51:22;;;;;;;5.82;2.85;;;1.60;99.90;;;;;;5034392;28;20260;-61
2023/02/27 01:53:52;;;;;;;4.35;2.50;;;1.70;99.90;;;;;;5034229;28;20283;-60
2023/02/27 01:56:21;;;;;;;3.15;2.35;;;1.60;99.90;;;;;;5034206;28;20622;-61
2023/02/27 01:58:49;;;;;;;3.40;3.05;;;1.60;99.90;;;;;;5034010;28;20279;-60
2023/02/27 02:01:16;;;;;;;3.03;2.80;;;1.70;99.90;;;;;;5033793;28;20198;-60
2023/02/27 02:03:48;;;;;;;5.20;2.70;;;1.70;99.90;;;;;;5033357;28;20187;-60
2023/02/27 02:06:15;;;;;;;3.20;2.40;;;1.60;99.90;;;;;;5033921;28;20192;-59
2023/02/27 02:08:46;;;;;;;3.42;2.25;;;1.40;99.90;;;;;;5033880;28;20640;-61
2023/02/27 02:11:14;;;;;;;3.90;2.85;;;1.50;99.90;;;;;;5033828;28;20217;-60
2023/02/27 02:13:41;;;;;;;4.50;2.85;;;1.60;99.90;;;;;;5033636;28;20723;-61
2023/02/27 02:16:21;;;;;;;3.80;2.40;;;1.60;99.90;;;;;;5033541;28;20274;-60
2023/02/27 02:18:55;;;;;;;2.75;2.55;;;1.60;99.90;;;;;;5033913;28;20187;-60
2023/02/27 02:21:49;;;;;;;3.78;2.65;;;1.50;99.90;;;;;;5033498;28;20730;-60
2023/02/27 02:24:45;;;;;;;3.35;2.40;;;1.40;99.90;;;;;;5033449;28;20192;-60
2023/02/27 02:27:23;;;;;;;3.03;2.47;;;1.30;99.90;;;;;;5033709;28;20628;-60
2023/02/27 02:30:31;;;;;;;3.00;2.53;;;1.40;99.90;;;;;;5033625;28;20265;-61
2023/02/27 02:33:34;;;;;;;3.47;3.08;;;1.40;99.90;;;;;;5026214;28;20714;-59
2023/02/27 02:36:36;;;;;;;2.65;2.45;;;1.30;99.90;;;;;;5033411;28;20283;-60
2023/02/27 02:39:29;;;;;;;2.50;2.28;;;1.30;99.90;;;;;;5033172;28;20623;-60
2023/02/27 02:42:03;;;;;;;2.97;2.10;;;1.30;99.90;;;;;;5033609;28;20196;-60
2023/02/27 02:44:40;;;;;;;2.28;2.08;;;1.20;99.90;;;;;;5033689;28;20187;-61
2023/02/27 02:47:16;;;;;;;2.63;2.30;;;1.20;99.90;;;;;;5033058;28;20638;-61
2023/02/27 02:49:49;;;;;;;2.75;2.40;;;1.10;99.90;;;;;;5033349;28;20249;-61
2023/02/27 02:52:25;;;;;;;4.72;2.78;;;1.20;99.90;;;;;;5033766;28;20310;-61
2023/02/27 02:55:00;;;;;;;2.70;2.03;;;1.20;99.90;;;;;;5034122;28;20206;-60
2023/02/27 02:57:32;;;;;;;2.83;2.63;;;1.10;99.90;;;;;;5033983;28;20246;-60
2023/02/27 03:00:06;;;;;;;4.13;2.60;;;1.10;99.90;;;;;;5033787;28;20623;-61
2023/02/27 03:02:37;;;;;;;4.68;2.55;;;1.00;99.90;;;;;;5033069;28;20653;-61
2023/02/27 03:05:08;;;;;;;2.55;2.35;;;0.90;99.90;;;;;;5033098;28;20607;-61
2023/02/27 03:07:39;;;;;;;2.85;2.40;;;1.00;99.90;;;;;;5033113;28;20195;-60
2023/02/27 03:10:11;;;;;;;2.90;2.33;;;1.20;99.90;;;;;;5032806;28;20212;-60
2023/02/27 03:12:44;;;;;;;3.88;2.67;;;1.20;99.90;;;;;;5033000;28;20751;-60
2023/02/27 03:15:15;;;;;;;3.40;2.58;;;1.30;99.90;;;;;;5035934;28;20195;-61
2023/02/27 03:17:45;;;;;;;3.40;2.47;;;1.30;99.90;;;;;;5037139;28;20199;-60
2023/02/27 03:20:19;;;;;;;2.45;2.25;;;1.40;99.90;;;;;;5036952;28;20198;-59
2023/02/27 03:22:50;;;;;;;2.92;2.67;;;1.50;99.90;;;;;;5036995;28;20618;-60
2023/02/27 03:25:19;;;;;;;3.97;2.65;;;1.50;99.90;;;;;;5036980;28;20555;-61
2023/02/27 03:27:52;;;;;;;2.38;2.17;;;1.50;99.90;;;;;;5036757;28;20274;-60
2023/02/27 03:30:25;;;;;;;2.60;2.40;;;1.60;99.90;;;;;;5036948;28;20286;-61
2023/02/27 03:32:58;;;;;;;3.45;3.10;;;1.50;99.90;;;;;;5036656;28;20310;-60
2023/02/27 03:35:33;;;;;;;3.28;2.92;;;1.40;99.90;;;;;;5036549;28;20218;-60
2023/02/27 03:38:06;;;;;;;2.58;2.38;;;1.40;99.90;;;;;;5036829;28;20195;-59
2023/02/27 03:40:38;;;;;;;3.67;2.47;;;1.40;99.90;;;;;;5036654;28;20282;-61
2023/02/27 03:43:16;;;;;;;2.80;2.20;;;1.40;99.90;;;;;;5036524;28;20278;-60
2023/02/27 03:45:48;;;;;;;5.75;2.75;;;1.50;99.90;;;;;;5036454;28;20286;-60
2023/02/27 03:48:15;;;;;;;3.15;2.47;;;1.40;99.90;;;;;;5036614;28;20201;-61
2023/02/27 03:50:42;;;;;;;3.33;2.70;;;1.30;99.90;;;;;;5036273;28;20720;-61
2023/02/27 03:53:19;;;;;;;3.15;2.42;;;1.40;99.90;;;;;;5036301;28;20241;-61
2023/02/27 03:55:50;;;;;;;4.15;2.53;;;1.60;99.90;;;;;;5036335;28;20282;-61
2023/02/27 03:58:17;;;;;;;1.77;1.67;;;1.70;99.90;;;;;;5036246;28;20278;-61
2023/02/27 04:00:43;;;;;;;2.17;1.65;;;1.80;99.90;;;;;;5036374;28;20303;-60
2023/02/27 04:03:10;;;;;;;2.50;2.20;;;1.70;99.90;;;;;;5036220;28;20194;-60
2023/02/27 04:05:37;;;;;;;3.15;2.30;;;1.80;99.90;;;;;;5036155;28;20187;-60
2023/02/27 04:08:30;;;;;;;2.25;2.05;;;1.70;99.90;;;;;;5036116;28;20191;-60
2023/02/27 04:11:13;;;;;;;2.33;2.13;;;1.70;99.90;;;;;;5036247;28;20666;-59
2023/02/27 04:13:52;;;;;;;9.30;7.00;;;1.70;99.90;;;;;;5036141;28;20274;-61
2023/02/27 04:16:46;;;;;;;2.85;2.65;;;1.70;99.90;;;;;;5036002;28;20196;-61
2023/02/27 04:19:25;;;;;;;3.05;2.25;;;1.70;99.90;;;;;;5036044;28;20270;-61
2023/02/27 04:22:01;;;;;;;1.98;1.77;;;1.80;99.90;;;;;;5036037;28;20226;-61
2023/02/27 04:24:35;;;;;;;4.10;1.85;;;2.00;99.90;;;;;;5035840;28;20187;-60
2023/02/27 04:27:14;;;;;;;2.70;2.25;;;1.90;99.90;;;;;;5035229;28;20200;-61
2023/02/27 04:29:50;;;;;;;5.13;2.17;;;1.80;99.90;;;;;;5035856;28;20198;-61
2023/02/27 04:32:21;;;;;;;2.00;1.90;;;1.80;99.90;;;;;;5035683;28;20254;-60
2023/02/27 04:34:52;;;;;;;2.63;2.00;;;1.90;99.90;;;;;;5035506;28;20223;-61
2023/02/27 04:37:24;;;;;;;2.30;2.10;;;1.90;99.90;;;;;;5035593;28;20283;-61
2023/02/27 04:39:54;;;;;;;7.20;2.55;;;2.00;99.90;;;;;;5035865;28;20192;-60
2023/02/27 04:42:27;;;;;;;3.58;1.55;;;2.00;99.90;;;;;;5035598;28;20302;-60
2023/02/27 04:44:56;;;;;;;2.15;1.92;;;2.00;99.90;;;;;;5035593;28;20192;-59
2023/02/27 04:47:26;;;;;;;2.03;1.83;;;2.00;99.90;;;;;;5035304;28;20278;-59
2023/02/27 04:49:56;;;;;;;2.67;1.67;;;2.00;99.90;;;;;;5035659;28;20452;-61
2023/02/27 04:52:27;;;;;;;1.77;1.67;;;2.10;99.90;;;;;;5035053;28;20223;-61
2023/02/27 04:54:58;;;;;;;3.55;2.20;;;2.20;99.90;;;;;;5035277;28;20275;-58
2023/02/27 04:57:31;;;;;;;2.78;2.15;;;2.10;99.90;;;;;;5035258;28;20193;-60
2023/02/27 05:00:04;;;;;;;2.53;1.73;;;1.90;99.90;;;;;;5035367;28;20292;-60
2023/02/27 05:02:35;;;;;;;3.78;2.40;;;1.80;99.90;;;;;;5035014;28;20187;-62
2023/02/27 05:05:07;;;;;;;2.03;1.48;;;1.80;99.90;;;;;;5035187;28;20228;-60
2023/02/27 05:07:38;;;;;;;1.63;1.52;;;1.90;99.90;;;;;;5035124;28;20192;-60
2023/02/27 05:10:08;;;;;;;5.35;2.25;;;1.80;99.90;;;;;;5034880;28;20195;-59
2023/02/27 05:12:41;;;;;;;2.35;1.52;;;1.70;99.90;;;;;;5034771;28;20219;-60
2023/02/27 05:15:12;;;;;;;4.60;1.90;;;1.80;99.90;;;;;;5034749;28;20196;-60
2023/02/27 05:17:44;;;;;;;2.95;2.60;;;1.70;99.90;;;;;;5034946;28;20598;-60
2023/02/27 05:20:13;;;;;;;2.08;1.88;;;1.70;99.90;;;;;;5034917;28;20198;-60
2023/02/27 05:22:47;;;;;;;3.15;1.73;;;1.70;99.90;;;;;;5034730;28;20584;-59
2023/02/27 05:25:19;;;;;;;3.65;2.13;;;1.70;99.90;;;;;;5034581;28;20282;-60
2023/02/27 05:27:52;;;;;;;2.83;1.85;;;1.70;99.90;;;;;;5034487;28;20192;-60
2023/02/27 05:30:25;;;;;;;6.72;2.13;;;1.70;99.90;;;;;;5034686;28;20203;-60
2023/02/27 05:32:56;;;;;;;5.72;1.98;;;1.70;99.90;;;;;;5034244;28;20222;-60
2023/02/27 05:35:28;;;;;;;2.28;2.00;;;1.70;99.90;;;;;;5034533;28;20219;-60
2023/02/27 05:38:02;;;;;;;1.98;1.70;;;1.70;99.90;;;;;;5033309;28;20196;-60
2023/02/27 05:40:33;;;;;;;3.58;2.05;;;1.90;99.90;;;;;;5034473;28;20277;-60
2023/02/27 05:43:06;;;;;;;2.92;2.30;;;2.00;99.90;;;;;;5034383;28;20279;-61
2023/02/27 05:45:36;;;;;;;1.85;1.75;;;2.00;99.90;;;;;;5034172;28;20681;-59
2023/02/27 05:48:07;;;;;;;4.15;2.78;;;1.90;99.90;;;;;;5034396;28;20245;-59
2023/02/27 05:50:37;;;;;;;2.83;1.83;;;1.80;99.90;;;;;;5034089;28;20225;-60
2023/02/27 05:53:07;;;;;;;2.60;2.28;;;1.80;99.90;;;;;;5034109;28;20309;-60
2023/02/27 05:55:37;;;;;;;4.60;2.88;;;1.80;99.90;;;;;;5034574;28;20191;-59
2023/02/27 05:58:11;;;;;;;8.50;3.50;;;1.80;99.90;;;;;;5034108;28;20649;-59
2023/02/27 06:00:40;;;;;;;3.97;2.20;;;1.70;99.90;;;;;;5033934;28;20218;-60
2023/02/27 06:03:07;;;;;;;3.00;2.47;;;1.50;99.90;;;;;;5033762;28;20282;-60
2023/02/27 06:05:35;;;;;;;4.50;2.63;;;1.50;99.90;;;;;;5033958;28;20261;-59
2023/02/27 06:08:01;;;;;;;4.85;2.28;;;1.50;99.90;;;;;;5033966;28;20277;-59
2023/02/27 06:10:28;;;;;;;5.43;1.85;;;1.60;99.90;;;;;;5033662;28;20285;-60
2023/02/27 06:12:55;;;;;;;3.15;2.53;;;1.70;99.90;;;;;;5033578;28;20697;-60
2023/02/27 06:15:23;;;;;;;2.58;2.38;;;1.80;99.90;;;;;;5033557;28;20565;-60
2023/02/27 06:17:49;;;;;;;3.63;2.45;;;1.70;99.90;;;;;;5033559;28;20721;-60
2023/02/27 06:20:16;;;;;;;3.10;2.40;;;1.70;99.90;;;;;;5033655;28;20191;-60
2023/02/27 06:22:42;;;;;;;2.78;1.90;;;1.60;99.90;;;;;;5033567;28;20264;-63
2023/02/27 06:25:09;;;;;;;4.50;2.58;;;1.50;99.90;;;;;;5033544;28;20249;-61
2023/02/27 06:27:36;;;;;;;3.83;2.20;;;1.50;99.90;;;;;;5033378;28;20238;-61
2023/02/27 06:30:09;;;;;;;2.90;2.35;;;1.60;99.90;;;;;;5033214;28;20291;-62
2023/02/27 06:32:41;;;;;;;4.82;2.65;;;1.70;99.90;;;;;;5033628;28;20297;-60
2023/02/27 06:35:08;;;;;;;3.53;2.65;;;1.80;99.90;;;;;;5033236;28;20226;-59
2023/02/27 06:37:35;;;;;;;9.02;2.50;;;1.90;99.90;;;;;;5033340;28;20226;-59
2023/02/27 06:40:04;;;;;;;4.82;2.75;;;1.90;99.90;;;;;;5033399;28;20188;-60
2023/02/27 06:42:31;;;;;;;4.70;3.10;;;2.00;99.90;;;;;;5033172;28;20241;-59
2023/02/27 06:44:58;;;;;;;13.57;5.88;;;2.00;99.90;;;;;;5033471;28;20526;-60
2023/02/27 06:47:24;;;;;;;4.25;3.05;;;2.00;99.90;;;;;;5033268;28;20188;-61
2023/02/27 06:49:52;;;;;;;3.45;2.17;;;1.90;99.90;;;;;;5032881;28;20283;-60
2023/02/27 06:52:18;;;;;;;4.70;2.60;;;1.90;99.90;;;;;;5033049;28;20297;-61
2023/02/27 06:54:45;;;;;;;2.60;2.35;;;1.80;99.90;;;;;;5032915;28;20195;-60
2023/02/27 06:57:11;;;;;;;3.10;2.47;;;1.60;99.90;;;;;;5032882;28;20192;-59
2023/02/27 06:59:38;;;;;;;2.65;2.13;;;1.50;99.90;;;;;;5033069;28;20286;-60
2023/02/27 07:02:04;;;;;;;2.55;2.35;;;1.40;99.90;;;;;;5033071;28;20190;-61
2023/02/27 07:04:31;;;;;;;3.42;2.90;;;1.40;99.90;;;;;;5033054;28;20354;-60
2023/02/27 07:06:59;;;;;;;3.25;2.55;;;1.50;99.90;;;;;;5032945;28;20628;-60
2023/02/27 07:09:27;;;;;;;3.40;2.15;;;1.50;99.90;;;;;;5032889;28;20196;-59
2023/02/27 07:11:53;;;;;;;10.25;2.33;;;1.60;99.90;;;;;;5032792;28;20187;-59
2023/02/27 07:14:20;;;;;;;2.10;1.80;;;1.50;99.90;;;;;;5032979;28;20306;-61
2023/02/27 07:16:49;;;;;;;3.90;2.83;;;1.50;99.90;;;;;;5032953;28;20189;-60
2023/02/27 07:19:16;;;;;;;2.33;2.13;;;1.50;99.90;;;;;;5032864;28;20196;-60
2023/02/27 07:21:43;;;;;;;2.97;2.55;;;1.50;99.90;;;;;;5032660;28;20198;-59
2023/02/27 07:24:11;;;;;;;2.45;2.25;;;1.50;99.90;;;;;;5032663;28;20605;-59
2023/02/27 07:26:38;;;;;;;2.65;2.45;;;1.60;99.90;;;;;;5032865;28;20196;-61
2023/02/27 07:29:05;;;;;;;8.75;3.13;;;1.50;99.90;;;;;;5032827;28;20192;-59
2023/02/27 07:31:32;;;;;;;6.32;3.00;;;1.50;99.90;;;;;;5032755;28;20283;-59
2023/02/27 07:33:58;;;;;;;3.20;2.50;;;1.30;99.90;;;;;;5032522;28;20223;-59
2023/02/27 07:36:25;;;;;;;5.68;2.92;;;1.50;99.90;;;;;;5032642;28;20230;-61
2023/02/27 07:38:52;;;;;;;3.28;2.42;;;1.60;99.90;;;;;;5032498;28;20282;-60
2023/02/27 07:41:20;;;;;;;3.47;2.33;;;1.60;99.90;;;;;;5032698;28;20227;-61
2023/02/27 07:43:46;;;;;;;4.00;2.80;;;1.70;99.90;;;;;;5032629;28;20275;-60
2023/02/27 07:46:13;;;;;;;2.75;2.42;;;1.70;99.90;;;;;;5032637;28;20199;-61
2023/02/27 07:48:39;;;;;;;5.10;2.58;;;1.80;99.90;;;;;;5032504;28;20200;-61
2023/02/27 07:51:06;;;;;;;3.40;2.45;;;1.90;99.90;;;;;;5032420;28;20192;-60
2023/02/27 07:53:33;;;;;;;4.22;3.08;;;2.00;99.90;;;;;;5032245;28;20617;-60
2023/02/27 07:55:59;;;;;;;2.58;2.38;;;2.00;99.90;;;;;;5032517;28;20278;-60
2023/02/27 07:58:27;;;;;;;6.28;3.58;;;2.00;99.90;;;;;;5032626;28;20616;-61
2023/02/27 08:00:54;;;;;;;4.28;3.35;;;2.10;99.90;;;;;;5033091;28;20278;-62
2023/02/27 08:03:20;;;;;;;4.15;3.75;;;2.00;99.90;;;;;;5036423;28;20192;-61
2023/02/27 08:05:47;;;;;;;2.30;2.10;;;2.00;99.90;;;;;;5036067;28;20675;-57
2023/02/27 08:08:14;;;;;;;4.80;3.30;;;2.00;99.90;;;;;;5035956;28;20678;-62
2023/02/27 08:10:41;;;;;;;4.20;2.30;;;2.10;99.90;;;;;;5035868;28;20195;-58
2023/02/27 08:13:08;;;;;;;3.67;2.35;;;2.20;99.90;;;;;;5035751;28;20239;-57
2023/02/27 08:15:36;;;;;;;5.78;2.80;;;2.40;99.90;;;;;;5035801;28;20192;-62
2023/02/27 08:18:02;;;;;;;2.05;1.85;;;2.60;99.90;;;;;;5035705;28;20253;-58
2023/02/27 08:20:30;;;;;;;2.65;2.45;;;2.60;99.90;;;;;;5035687;28;20203;-62
2023/02/27 08:22:57;;;;;;;3.83;2.47;;;2.50;99.90;;;;;;5036004;28;20258;-63
2023/02/27 08:25:24;;;;;;;2.53;2.30;;;2.60;99.90;;;;;;5035763;28;20210;-65
2023/02/27 08:27:51;;;;;;;6.10;2.70;;;2.80;99.90;;;;;;5035861;28;20192;-61
2023/02/27 08:30:18;;;;;;;2.90;2.50;;;2.80;99.90;;;;;;5035683;28;20195;-62
2023/02/27 08:35:21;;;;;;;5.32;2.80;;;3.10;99.90;;;;;;2990262;22;20578;-56
2023/02/27 08:37:48;;;;;;;2.40;2.17;;;3.10;99.90;;;;;;4996209;28;20197;-56
2023/02/27 08:40:15;;;;;;;3.53;3.25;;;3.30;99.90;;;;;;4996030;28;20190;-59
2023/02/27 08:42:42;;;;;;;2.90;2.20;;;3.40;99.90;;;;;;4995906;28;20288;-58
2023/02/27 08:45:10;;;;;;;4.30;2.35;;;3.30;99.90;;;;;;4995851;28;20189;-58
2023/02/27 08:47:36;;;;;;;3.85;2.83;;;3.30;99.90;;;;;;4995836;28;20204;-58
2023/02/27 08:50:05;;;;;;;4.18;3.33;;;3.50;99.90;;;;;;4996140;28;20556;-58
2023/02/27 08:52:33;;;;;;;2.75;2.13;;;3.50;99.90;;;;;;4995923;28;20197;-59
2023/02/27 08:54:59;;;;;;;3.15;2.35;;;3.60;99.90;;;;;;4995841;28;20225;-59
2023/02/27 08:57:26;;;;;;;3.10;2.78;;;3.60;99.90;;;;;;4995636;28;20193;-59
2023/02/27 08:59:52;;;;;;;2.95;2.60;;;3.70;99.90;;;;;;4995499;28;20194;-56
2023/02/27 09:02:22;;;;;;;3.67;2.83;;;3.70;99.90;;;;;;4995789;28;20281;-54
2023/02/27 09:04:48;;;;;;;3.70;2.53;;;3.70;99.90;;;;;;4995581;28;20296;-55
2023/02/27 09:07:15;;;;;;;3.78;2.67;;;3.70;99.90;;;;;;4995289;28;20707;-57
2023/02/27 09:09:43;;;;;;;3.28;2.47;;;3.70;99.90;;;;;;4995206;28;20229;-56
2023/02/27 09:12:09;;;;;;;4.25;2.67;;;3.60;99.90;;;;;;4995154;28;20208;-60
2023/02/27 09:14:36;;;;;;;2.85;2.50;;;3.80;99.90;;;;;;4995103;28;20224;-59
2023/02/27 09:17:02;;;;;;;4.10;2.83;;;3.70;99.90;;;;;;4995207;28;20205;-60
2023/02/27 09:19:29;;;;;;;3.15;2.40;;;3.90;99.90;;;;;;4995168;28;20198;-57
2023/02/27 09:21:55;;;;;;;2.95;2.65;;;4.00;99.90;;;;;;4995259;28;20245;-59
2023/02/27 09:24:22;;;;;;;4.50;2.85;;;4.00;99.90;;;;;;4995070;28;20529;-56
2023/02/27 09:26:51;;;;;;;3.15;2.83;;;4.00;99.90;;;;;;4995215;28;20198;-57
2023/02/27 09:29:18;;;;;;;2.90;2.67;;;4.20;99.90;;;;;;4995100;28;20284;-56
2023/02/27 09:31:44;;;;;;;3.65;2.50;;;4.40;99.90;;;;;;4995135;28;20205;-49
2023/02/27 09:34:11;;;;;;;3.83;3.25;;;4.40;99.90;;;;;;4994937;28;20310;-57
2023/02/27 09:36:37;;;;;;;3.95;3.10;;;4.60;99.90;;;;;;4994671;28;20562;-57
2023/02/27 09:39:04;;;;;;;3.92;3.38;;;4.60;99.90;;;;;;4994904;28;20191;-60
2023/02/27 09:41:46;;;;;;;4.97;3.95;;;4.60;99.90;;;;;;4994628;28;20200;-59
2023/02/27 09:44:24;;;;;;;3.55;3.03;;;4.70;99.90;;;;;;4994873;28;20669;-56
2023/02/27 09:46:50;;;;;;;7.05;5.03;;;4.70;99.90;;;;;;4994803;28;20199;-57
2023/02/27 09:49:20;;;;;;;3.67;2.70;;;4.80;99.90;;;;;;4994521;28;20194;-57
2023/02/27 09:51:50;;;;;;;3.72;3.25;;;4.80;99.90;;;;;;4994614;28;20190;-57
2023/02/27 09:54:17;;;;;;;2.30;2.10;;;4.80;99.90;;;;;;4994588;28;20657;-57
2023/02/27 09:56:49;;;;;;;3.47;2.20;;;4.70;99.90;;;;;;4994648;28;20274;-58
2023/02/27 09:59:28;;;;;;;2.80;2.30;;;4.70;99.90;;;;;;4994618;28;20201;-61
2023/02/27 10:02:04;;;;;;;2.40;1.52;;;4.80;99.90;;;;;;4994544;28;20289;-59
2023/02/27 10:04:37;;;;;;;2.30;2.10;;;4.50;99.90;;;;;;4994248;28;20198;-53
2023/02/27 10:07:12;;;;;;;3.00;2.00;;;4.60;99.90;;;;;;4994543;28;20198;-57
2023/02/27 10:09:49;;;;;;;2.38;1.85;;;4.50;99.90;;;;;;4994501;28;20265;-57
2023/02/27 10:12:32;;;;;;;3.25;1.70;;;4.50;99.90;;;;;;4994313;28;20196;-50
2023/02/27 10:15:04;;;;;;;5.07;3.20;;;4.50;99.90;;;;;;4994121;28;20221;-57
2023/02/27 10:17:35;;;;;;;2.08;1.67;;;4.60;99.90;;;;;;4994384;28;20201;-57
2023/02/27 10:20:08;;;;;;;3.03;1.90;;;4.70;99.90;;;;;;4994368;28;20202;-57
2023/02/27 10:22:37;;;;;;;2.67;1.40;;;4.90;99.90;;;;;;4993692;28;20650;-55
2023/02/27 10:25:10;;;;;;;3.15;1.73;;;4.90;99.90;;;;;;4993483;28;20226;-54
2023/02/27 10:27:38;;;;;;;3.97;1.80;;;5.00;99.90;;;;;;4994172;28;20656;-57
2023/02/27 10:30:19;;;;;;;1.35;1.25;;;5.00;99.90;;;;;;4993801;28;20652;-56
2023/02/27 10:32:46;;;;;;;2.85;1.40;;;5.00;99.90;;;;;;4993877;28;20222;-55
2023/02/27 10:35:26;;;;;;;7.97;2.28;;;5.10;99.90;;;;;;4993421;28;20232;-60
2023/02/27 10:37:58;;;;;;;1.30;1.20;;;5.20;99.90;;;;;;4993682;28;20281;-56
2023/02/27 10:40:25;;;;;;;3.55;1.30;;;5.30;99.90;;;;;;4993863;28;20281;-59
2023/02/27 10:42:54;;;;;;;1.60;1.17;;;5.40;99.90;;;;;;4993765;28;20204;-58
2023/02/27 10:45:22;;;;;;;1.13;1.00;;;5.60;99.90;;;;;;4993658;28;20198;-58
2023/02/27 10:47:48;;;;;;;1.98;1.02;;;5.80;99.90;;;;;;4993846;28;20203;-59
2023/02/27 10:50:25;;;;;;;1.20;0.90;;;5.80;99.90;;;;;;4993598;28;20195;-61
2023/02/27 10:52:54;;;;;;;2.97;0.98;;;5.90;99.90;;;;;;4993821;28;20205;-58
2023/02/27 10:55:25;;;;;;;1.30;1.20;;;6.00;99.90;;;;;;4993611;28;20337;-59
2023/02/27 10:57:55;;;;;;;1.40;0.82;;;5.80;99.90;;;;;;4993572;28;20245;-59
2023/02/27 11:00:40;;;;;;;4.20;1.00;;;5.80;99.90;;;;;;4993500;28;20201;-59
2023/02/27 11:03:07;;;;;;;1.30;0.80;;;5.80;99.90;;;;;;4993076;28;20463;-57
2023/02/27 11:05:36;;;;;;;0.85;0.60;;;5.60;99.90;;;;;;4993443;28;20195;-53
2023/02/27 11:08:20;;;;;;;1.55;0.70;;;5.70;99.90;;;;;;4993493;28;20190;-56
2023/02/27 11:10:59;;;;;;;2.85;0.70;;;5.50;99.90;;;;;;4993675;28;20201;-59
2023/02/27 11:13:27;;;;;;;7.75;1.00;;;5.60;99.90;;;;;;4993808;28;20195;-55
2023/02/27 11:16:08;;;;;;;1.02;0.73;;;5.60;99.90;;;;;;4993406;28;20659;-57
2023/02/27 11:18:36;;;;;;;3.42;0.68;;;5.60;99.90;;;;;;4993521;28;20203;-57
2023/02/27 11:21:12;;;;;;;1.98;0.85;;;5.40;99.90;;;;;;4993375;28;20204;-54
2023/02/27 11:23:50;;;;;;;9.17;4.07;;;5.30;99.90;;;;;;4993246;28;20580;-61
2023/02/27 11:26:22;;;;;;;8.85;2.60;;;5.30;99.90;;;;;;4993542;28;21039;-57
2023/02/27 11:29:05;;;;;;;3.25;3.05;;;5.30;99.90;;;;;;4993152;28;20657;-57
2023/02/27 11:31:34;;;;;;;16.55;3.05;;;5.30;99.90;;;;;;4993211;28;20313;-59
2023/02/27 11:34:03;;;;;;;0.90;0.70;;;5.40;99.90;;;;;;4993023;28;20249;-54
2023/02/27 11:36:40;;;;;;;3.58;1.08;;;5.50;99.90;;;;;;4994754;28;20277;-62
2023/02/27 11:39:06;;;;;;;2.35;0.90;;;5.40;99.90;;;;;;4997286;28;20201;-59
2023/02/27 11:41:34;;;;;;;1.98;0.80;;;5.40;99.90;;;;;;4997104;28;20200;-61
2023/02/27 11:44:04;;;;;;;2.45;0.73;;;5.50;99.90;;;;;;4996769;28;20201;-61
2023/02/27 11:46:32;;;;;;;2.28;2.17;;;5.20;99.90;;;;;;4996810;28;20253;-61
2023/02/27 11:49:09;;;;;;;1.77;1.65;;;5.30;99.90;;;;;;4996885;28;20724;-62
2023/02/27 11:51:51;;;;;;;0.70;0.60;;;5.40;99.90;;;;;;4997053;28;20552;-62
2023/02/27 11:54:31;;;;;;;2.43;1.00;;;5.40;99.90;;;;;;4996633;28;20792;-61
2023/02/27 11:57:03;;;;;;;3.65;0.60;;;5.50;99.90;;;;;;4996732;28;20453;-61
2023/02/27 11:59:39;;;;;;;4.60;1.10;;;5.40;99.90;;;;;;4996850;28;20198;-60
2023/02/27 12:02:16;;;;;;;1.58;0.60;;;5.50;99.90;;;;;;4996811;28;20457;-60
2023/02/27 12:04:49;;;;;;;4.25;1.23;;;5.40;99.90;;;;;;4996621;28;20286;-61
2023/02/27 12:07:21;;;;;;;0.80;0.70;;;5.50;99.90;;;;;;4996530;28;20565;-59
2023/02/27 12:09:56;;;;;;;3.25;0.75;;;5.50;99.90;;;;;;4996398;28;20264;-58
2023/02/27 12:12:28;;;;;;;0.88;0.70;;;5.50;99.90;;;;;;4996505;28;20233;-58
2023/02/27 12:15:03;;;;;;;1.00;0.70;;;5.60;99.90;;;;;;4996512;28;20584;-60
2023/02/27 12:17:37;;;;;;;1.05;0.60;;;5.60;99.90;;;;;;4996349;28;20527;-59
2023/02/27 12:20:27;;;;;;;0.70;0.55;;;5.60;99.90;;;;;;4996197;28;20203;-62
2023/02/27 12:22:55;;;;;;;1.13;0.80;;;5.70;99.90;;;;;;4996503;28;20322;-58
2023/02/27 12:25:34;;;;;;;12.07;1.92;;;5.70;99.90;;;;;;4996315;28;20272;-63
2023/02/27 12:28:07;;;;;;;1.10;0.75;;;5.70;99.90;;;;;;4996236;28;20286;-60
2023/02/27 12:30:42;;;;;;;1.20;0.60;;;5.70;99.90;;;;;;4995997;28;20205;-60
2023/02/27 12:33:17;;;;;;;4.07;1.27;;;5.70;99.90;;;;;;4996296;28;20455;-63
2023/02/27 12:35:46;;;;;;;2.22;0.70;;;5.70;99.90;;;;;;4995844;28;20328;-62
2023/02/27 12:38:14;;;;;;;1.30;0.80;;;5.80;99.90;;;;;;4995986;28;20214;-55
2023/02/27 12:40:51;;;;;;;1.43;1.10;;;6.00;99.90;;;;;;4995850;28;20237;-60
2023/02/27 12:43:28;;;;;;;1.20;0.70;;;6.00;98.70;;;;;;4996167;28;20459;-60
2023/02/27 12:46:17;;;;;;;0.80;0.70;;;6.00;98.50;;;;;;4995934;28;20460;-59
2023/02/27 12:48:59;;;;;;;11.55;1.83;;;6.00;97.20;;;;;;4995563;28;20457;-60
2023/02/27 12:51:34;;;;;;;2.33;0.95;;;6.00;97.50;;;;;;4995810;28;20294;-60
2023/02/27 12:54:11;;;;;;;0.70;0.70;;;6.00;98.20;;;;;;4995684;28;20199;-59
2023/02/27 12:56:51;;;;;;;0.70;0.70;;;6.10;98.50;;;;;;4995720;28;20278;-59
2023/02/27 12:59:43;;;;;;;3.30;0.77;;;6.00;97.90;;;;;;4995573;28;20449;-59
2023/02/27 13:02:27;;;;;;;1.87;0.60;;;6.00;97.10;;;;;;4995716;28;20540;-60
2023/02/27 13:05:04;;;;;;;0.75;0.50;;;5.90;97.10;;;;;;4995529;28;20533;-61
2023/02/27 13:07:36;;;;;;;0.90;0.70;;;5.90;97.50;;;;;;4995378;28;20285;-59
2023/02/27 13:10:10;;;;;;;1.60;1.15;;;5.90;97.50;;;;;;4995351;28;20552;-54
2023/02/27 13:12:41;;;;;;;1.73;1.10;;;6.00;97.70;;;;;;4995471;28;20195;-61
2023/02/27 13:15:17;;;;;;;0.80;0.80;;;5.90;97.70;;;;;;4995454;28;20320;-58
2023/02/27 13:17:48;;;;;;;1.13;1.02;;;5.90;97.70;;;;;;4995255;28;20982;-59
2023/02/27 13:20:27;;;;;;;2.08;1.08;;;5.80;98.80;;;;;;4995204;28;20199;-60